Eden Valley, MN

2:17 AM CST on February 13, 2016 (GMT -0600)
Paynesville | | Change Station
CLOSE
Current Station
Airport
Location: Paynesville,
Elevation: 1181 ft
Nearby Weather Stations

Elev 1181 ft 45.37 °N, 94.74 °W | Updated 23 minutes ago

Partly Cloudy
Partly Cloudy
-8 °F
Feels Like -16 °F
N
4
Wind Variable Wind from North

Today
High -- | Low -- °F
--% Chance of Precip.
Yesterday
High -- | Low -- °F
Precip. -- in
Pressure 30.63 in
Visibility 10.0 miles
Clouds Clear
Windchill -16 °F
Dew Point -14 °F
Humidity 75%
Rainfall 0.00 in
Snow Depth Not available.
7:23 AM 5:42 PM
Waxing Crescent, 28% visible
METAR KPEX 130754Z AUTO 35003KT 10SM CLR M22/M25 A3063 RMK AO2 T12201254
Pressure 30.63 in
Visibility 10.0 miles
Clouds Clear
Windchill -16 °F
Dew Point -14 °F
Humidity 75%
Rainfall 0.00 in
Snow Depth Not available.
7:23 AM 5:42 PM
Waxing Crescent, 28% visible
METAR KPEX 130754Z AUTO 35003KT 10SM CLR M22/M25 A3063 RMK AO2 T12201254

10-Day Weather Forecast

Almanac

Astronomy

Feb. 13, 2016 Rise Set
Actual Time
Civil Twilight
Nautical Twilight
Astronomical Twilight
Moon
Length of Visible Light
Length of Day
Tomorrow will be .
, % of the Moon is Illuminated

Today's Extremes

State Highs State Lows

Community

WunderPhotos

Upload Photos

1,892,536 photos uploaded!

WunderBlog® & News

Nearby

Air Quality

  Air Quality AQ Index Pollutant
Not available.

Snow Depth

Station Depth Elevation

Earthquake Activity

City Distance Mag. Time & Date
Minimum magnitude displayed is 2.5.

Coastal Water Temperatures

Place Temperature

Stations

Nearby Weather Stations

Station Location Temp. Windchill Dew Point Humidity Wind Precip. Elev Updated Type
                   

Watches & Warnings

There are currently no watches in effect.